createdAt,value
2022-12-19T00:00:32.603Z,-1.36
2022-12-19T00:03:00.575Z,-1.39
2022-12-19T00:05:28.122Z,-1.50
2022-12-19T00:07:55.581Z,-1.47
2022-12-19T00:10:24.741Z,-1.47
2022-12-19T00:12:52.293Z,-1.55
2022-12-19T00:15:19.745Z,-1.60
2022-12-19T00:17:47.464Z,-1.54
2022-12-19T00:20:15.959Z,-1.62
2022-12-19T00:22:46.299Z,-1.71
2022-12-19T00:25:14.089Z,-1.67
2022-12-19T00:27:41.974Z,-1.68
2022-12-19T00:30:10.417Z,-1.67
2022-12-19T00:32:38.727Z,-1.65
2022-12-19T00:35:06.556Z,-1.63
2022-12-19T00:37:34.844Z,-1.64
2022-12-19T00:40:04.386Z,-1.65
2022-12-19T00:42:32.057Z,-1.68
2022-12-19T00:44:59.479Z,-1.68
2022-12-19T00:47:27.170Z,-1.76
2022-12-19T00:49:54.603Z,-1.74
2022-12-19T00:52:22.032Z,-1.72
2022-12-19T00:54:51.360Z,-1.70
2022-12-19T00:57:20.012Z,-1.70
2022-12-19T00:59:47.566Z,-1.68
2022-12-19T01:02:15.395Z,-1.70
2022-12-19T01:04:43.098Z,-1.72
2022-12-19T01:07:12.254Z,-1.70
2022-12-19T01:09:40.030Z,-1.68
2022-12-19T01:12:30.030Z,-1.63
2022-12-19T01:15:04.184Z,-1.68
2022-12-19T01:17:38.881Z,-1.71
2022-12-19T01:20:15.704Z,-1.61
2022-12-19T01:22:44.192Z,-1.57
2022-12-19T01:25:14.742Z,-1.67
2022-12-19T01:27:42.217Z,-1.59
2022-12-19T01:30:10.670Z,-1.75
2022-12-19T01:32:38.877Z,-1.87
2022-12-19T01:35:09.922Z,-1.84
2022-12-19T01:37:51.221Z,-1.74
2022-12-19T01:40:20.422Z,-1.62
2022-12-19T01:42:49.055Z,-1.66
2022-12-19T01:45:17.295Z,-1.63
2022-12-19T01:47:56.797Z,-1.64
2022-12-19T01:50:32.249Z,-1.53
2022-12-19T01:53:01.756Z,-1.55
2022-12-19T01:55:30.936Z,-1.51
2022-12-19T01:58:00.080Z,-1.41
2022-12-19T02:00:27.514Z,-1.41
2022-12-19T02:03:05.325Z,-1.42
2022-12-19T02:05:35.195Z,-1.34
2022-12-19T02:08:04.087Z,-1.63
2022-12-19T02:10:32.088Z,-1.65
2022-12-19T02:12:59.673Z,-1.64
2022-12-19T02:15:33.046Z,-1.64
2022-12-19T02:18:28.007Z,-1.78
2022-12-19T02:20:56.622Z,-1.84
2022-12-19T02:23:46.871Z,-1.78
2022-12-19T02:26:31.053Z,-1.75
2022-12-19T02:29:07.643Z,-1.83
2022-12-19T02:31:44.866Z,-1.93
2022-12-19T02:34:30.977Z,-1.87
2022-12-19T02:37:10.909Z,-1.89
2022-12-19T02:39:44.807Z,-1.76
2022-12-19T02:42:21.424Z,-1.75
2022-12-19T02:44:52.864Z,-1.65
2022-12-19T02:47:22.204Z,-1.67
2022-12-19T02:49:49.974Z,-1.44
2022-12-19T02:52:20.807Z,-1.46
2022-12-19T02:54:52.170Z,-1.43
2022-12-19T02:57:30.557Z,-1.39
2022-12-19T03:00:17.884Z,-1.37
2022-12-19T03:03:04.501Z,-1.39
2022-12-19T03:05:34.975Z,-1.47
2022-12-19T03:08:08.769Z,-1.54
2022-12-19T03:10:49.686Z,-1.57
2022-12-19T03:13:29.924Z,-1.59
2022-12-19T03:15:58.999Z,-1.63
2022-12-19T03:18:27.511Z,-1.63
2022-12-19T03:21:31.491Z,-1.72
2022-12-19T03:23:59.624Z,-1.84
2022-12-19T03:26:31.599Z,-1.74
2022-12-19T03:29:15.007Z,-1.89
2022-12-19T03:31:46.143Z,-1.89
2022-12-19T03:34:30.293Z,-1.92
2022-12-19T03:37:02.939Z,-1.91
2022-12-19T03:39:32.685Z,-1.96
2022-12-19T03:42:20.820Z,-1.93
2022-12-19T03:44:51.155Z,-1.88
2022-12-19T03:47:21.184Z,-1.91
2022-12-19T03:49:49.565Z,-1.85
2022-12-19T03:52:53.448Z,-1.84
2022-12-19T03:55:31.180Z,-1.85
2022-12-19T03:58:07.969Z,-1.89
2022-12-19T04:00:38.077Z,-1.97
2022-12-19T04:03:08.134Z,-2.01
2022-12-19T04:05:38.242Z,-2.01
2022-12-19T04:08:08.257Z,-2.10
2022-12-19T04:10:43.848Z,-2.09
2022-12-19T04:13:17.782Z,-2.20
2022-12-19T04:16:20.965Z,-2.07
2022-12-19T04:18:56.476Z,-2.11
2022-12-19T04:21:41.141Z,-2.04
2022-12-19T04:24:14.243Z,-2.14
2022-12-19T04:26:47.370Z,-2.12
2022-12-19T04:29:16.657Z,-2.16
2022-12-19T04:31:44.732Z,-2.16
2022-12-19T04:34:12.507Z,-2.10
2022-12-19T04:36:40.351Z,-2.22
2022-12-19T04:39:07.821Z,-2.16
2022-12-19T04:41:35.341Z,-2.04
2022-12-19T04:44:03.110Z,-2.17
2022-12-19T04:46:30.620Z,-2.12
2022-12-19T04:48:58.075Z,-2.19
2022-12-19T04:51:26.199Z,-2.16
2022-12-19T04:53:53.644Z,-2.20
2022-12-19T04:56:21.083Z,-2.27
2022-12-19T04:58:48.775Z,-2.32
2022-12-19T05:01:16.239Z,-2.40
2022-12-19T05:03:43.807Z,-2.40
2022-12-19T05:06:15.213Z,-2.33
2022-12-19T05:08:43.739Z,-2.29
2022-12-19T05:11:19.476Z,-2.30
2022-12-19T05:13:47.831Z,-2.24
2022-12-19T05:16:16.123Z,-2.28
2022-12-19T05:18:44.369Z,-2.15
2022-12-19T05:21:13.002Z,-2.09
2022-12-19T05:23:40.702Z,-2.19
2022-12-19T05:26:08.345Z,-2.27
2022-12-19T05:28:35.856Z,-2.24
2022-12-19T05:31:20.082Z,-2.07
2022-12-19T05:33:48.606Z,-2.04
2022-12-19T05:36:17.707Z,-2.02
2022-12-19T05:38:46.153Z,-1.99
2022-12-19T05:41:17.942Z,-2.07
2022-12-19T05:43:49.424Z,-2.04
2022-12-19T05:46:16.985Z,-2.13
2022-12-19T05:48:44.487Z,-2.22
2022-12-19T05:51:12.675Z,-2.26
2022-12-19T05:53:41.378Z,-2.37
2022-12-19T05:56:14.178Z,-2.38
2022-12-19T05:58:42.890Z,-2.35
2022-12-19T06:01:14.252Z,-2.31
2022-12-19T06:03:42.744Z,-2.24
2022-12-19T06:06:12.909Z,-2.16
2022-12-19T06:08:40.455Z,-2.18
2022-12-19T06:11:09.705Z,-2.24
2022-12-19T06:13:37.997Z,-2.11
2022-12-19T06:16:09.892Z,-2.16
2022-12-19T06:18:42.890Z,-2.08
2022-12-19T06:21:20.228Z,-2.09
2022-12-19T06:23:48.253Z,-1.99
2022-12-19T06:26:19.786Z,-2.01
2022-12-19T06:28:52.805Z,-2.05
2022-12-19T06:31:22.562Z,-1.99
2022-12-19T06:33:50.790Z,-2.08
2022-12-19T06:36:29.261Z,-1.93
2022-12-19T06:38:59.291Z,-2.02
2022-12-19T06:41:46.050Z,-1.92
2022-12-19T06:44:15.880Z,-1.82
2022-12-19T06:46:43.967Z,-1.78
2022-12-19T06:49:12.112Z,-1.74
2022-12-19T06:51:39.971Z,-1.71
2022-12-19T06:54:07.436Z,-1.69
2022-12-19T06:56:36.459Z,-1.70
2022-12-19T06:59:05.779Z,-1.62
2022-12-19T07:02:00.720Z,-1.59
2022-12-19T07:04:41.862Z,-1.56
2022-12-19T07:07:09.331Z,-1.54
2022-12-19T07:09:37.280Z,-1.63
2022-12-19T07:12:05.031Z,-1.68
2022-12-19T07:14:32.751Z,-1.56
2022-12-19T07:17:02.609Z,-1.49
2022-12-19T07:19:32.066Z,-1.58
2022-12-19T07:22:01.777Z,-1.50
2022-12-19T07:24:29.996Z,-1.56
2022-12-19T07:26:58.004Z,-1.46
2022-12-19T07:29:25.741Z,-1.45
2022-12-19T07:31:53.206Z,-1.29
2022-12-19T07:34:20.647Z,-1.30
2022-12-19T07:36:48.378Z,-1.22
2022-12-19T07:39:15.773Z,-1.33
2022-12-19T07:41:43.241Z,-1.31
2022-12-19T07:44:13.405Z,-1.28
2022-12-19T07:46:41.034Z,-1.25
2022-12-19T07:49:08.695Z,-1.20
2022-12-19T07:51:36.530Z,-1.14
2022-12-19T07:54:05.589Z,-1.19
2022-12-19T07:56:33.057Z,-1.12
2022-12-19T07:59:00.990Z,-1.07
2022-12-19T08:01:29.254Z,-1.07
2022-12-19T08:03:58.114Z,-0.94
2022-12-19T08:06:26.850Z,-1.00
2022-12-19T08:08:54.584Z,-1.03
2022-12-19T08:11:27.105Z,-1.01
2022-12-19T08:13:54.746Z,-0.94
2022-12-19T08:16:23.256Z,-0.96
2022-12-19T08:18:50.813Z,-0.97
2022-12-19T08:21:18.362Z,-0.95
2022-12-19T08:23:46.220Z,-0.97
2022-12-19T08:26:16.219Z,-1.03
2022-12-19T08:28:43.715Z,-0.99
2022-12-19T08:31:14.888Z,-1.10
2022-12-19T08:33:43.590Z,-1.09
2022-12-19T08:36:13.355Z,-1.16
2022-12-19T08:38:41.286Z,-1.08
2022-12-19T08:41:09.325Z,-1.18
2022-12-19T08:43:38.272Z,-0.90
2022-12-19T08:46:06.289Z,-0.82
2022-12-19T08:48:34.808Z,-0.26
2022-12-19T08:51:07.729Z,-0.36
2022-12-19T08:53:37.779Z,-0.50
2022-12-19T08:56:14.839Z,-0.62
2022-12-19T08:58:42.985Z,-0.85
2022-12-19T09:01:16.458Z,-0.89
2022-12-19T09:04:24.490Z,-1.02
2022-12-19T09:06:31.829Z,-1.22
2022-12-19T09:09:00.434Z,-1.40
2022-12-19T09:11:28.191Z,-1.43
2022-12-19T09:13:57.671Z,-1.41
2022-12-19T09:16:28.570Z,-1.36
2022-12-19T09:18:58.817Z,-1.37
2022-12-19T09:21:29.272Z,-1.37
2022-12-19T09:24:06.966Z,-1.51
2022-12-19T09:26:35.717Z,-1.36
2022-12-19T09:29:19.717Z,-1.35
2022-12-19T09:31:56.461Z,-1.31
2022-12-19T09:34:38.197Z,-1.29
2022-12-19T09:37:08.259Z,-1.22
2022-12-19T09:39:36.418Z,-1.17
2022-12-19T09:43:01.755Z,-1.11
2022-12-19T09:45:45.803Z,-0.91
2022-12-19T09:48:23.531Z,-0.85
2022-12-19T09:51:13.951Z,-0.77
2022-12-19T09:54:03.074Z,-0.55
2022-12-19T09:56:46.504Z,-0.59
2022-12-19T09:59:19.455Z,-0.40
2022-12-19T10:01:59.914Z,-0.20
2022-12-19T10:04:32.815Z,0.28
2022-12-19T10:07:20.456Z,0.34
2022-12-19T10:12:33.484Z,0.30
2022-12-19T10:12:59.492Z,0.81
2022-12-19T10:15:41.519Z,0.90
2022-12-19T10:18:27.378Z,1.09
2022-12-19T10:21:08.527Z,1.60
2022-12-19T10:23:39.040Z,1.23
2022-12-19T10:26:14.873Z,1.02
2022-12-19T10:29:17.606Z,1.20
2022-12-19T10:32:04.546Z,1.05
2022-12-19T10:34:44.551Z,1.23
2022-12-19T10:37:37.570Z,1.31
2022-12-19T10:40:27.665Z,1.65
2022-12-19T10:43:25.623Z,1.76
2022-12-19T10:46:03.645Z,2.02
2022-12-19T10:48:31.819Z,1.78
2022-12-19T10:51:00.634Z,1.80
2022-12-19T10:53:34.543Z,1.88
2022-12-19T10:56:12.075Z,1.57
2022-12-19T10:58:43.669Z,1.58
2022-12-19T11:01:23.200Z,1.50
2022-12-19T11:04:18.860Z,0.90
2022-12-19T11:06:51.344Z,0.88
2022-12-19T11:09:25.077Z,0.58
2022-12-19T11:17:06.156Z,0.58
2022-12-19T11:19:57.672Z,0.59
2022-12-19T11:25:42.830Z,0.68
2022-12-19T11:29:31.804Z,1.20
2022-12-19T11:29:42.358Z,0.94
2022-12-19T11:30:05.880Z,1.27
2022-12-19T11:30:47.110Z,0.88
2022-12-19T11:34:35.734Z,1.03
2022-12-19T11:37:58.768Z,1.09
2022-12-19T11:40:48.883Z,1.31
2022-12-19T11:43:49.795Z,1.54
2022-12-19T11:46:43.577Z,1.19
2022-12-19T11:49:34.650Z,1.31
2022-12-19T11:52:54.141Z,1.35
2022-12-19T11:55:16.977Z,1.16
2022-12-19T11:57:45.602Z,1.10
2022-12-19T12:00:20.559Z,0.90
2022-12-19T12:03:20.806Z,0.86
2022-12-19T12:05:50.085Z,0.87
2022-12-19T12:09:56.267Z,0.86
2022-12-19T12:15:07.397Z,0.98
2022-12-19T12:31:10.203Z,0.74
2022-12-19T12:31:13.430Z,0.66
2022-12-19T12:31:22.910Z,0.70
2022-12-19T12:31:27.600Z,0.94
2022-12-19T12:31:50.445Z,0.74
2022-12-19T12:31:52.362Z,0.77
2022-12-19T12:35:54.319Z,0.84
2022-12-19T12:40:02.857Z,0.83
2022-12-19T12:42:48.820Z,0.84
2022-12-19T12:45:27.520Z,1.01
2022-12-19T12:47:55.035Z,0.96
2022-12-19T12:50:25.885Z,1.00
2022-12-19T12:52:56.945Z,1.14
2022-12-19T12:55:31.932Z,1.17
2022-12-19T12:58:00.232Z,0.99
2022-12-19T13:00:34.553Z,0.98
2022-12-19T13:03:16.058Z,0.91
2022-12-19T13:05:43.801Z,0.90
2022-12-19T13:08:35.754Z,0.82
2022-12-19T13:11:45.369Z,0.72
2022-12-19T13:14:31.599Z,0.72
2022-12-19T13:16:59.617Z,0.64
2022-12-19T13:19:53.352Z,0.64
2022-12-19T13:22:30.136Z,0.63
2022-12-19T13:24:59.756Z,0.68
2022-12-19T13:27:41.897Z,0.66
2022-12-19T13:30:15.358Z,0.70
2022-12-19T13:32:43.000Z,0.74
2022-12-19T13:36:36.956Z,0.76
2022-12-19T13:39:54.907Z,0.63
2022-12-19T13:41:47.099Z,0.68
2022-12-19T13:44:19.775Z,0.55
2022-12-19T13:46:47.913Z,0.51
2022-12-19T13:49:25.460Z,0.44
2022-12-19T13:51:58.544Z,0.50
2022-12-19T13:54:34.797Z,0.51
2022-12-19T13:57:09.193Z,0.53
2022-12-19T13:59:40.297Z,0.48
2022-12-19T14:02:25.742Z,0.51
2022-12-19T14:04:53.673Z,0.38
2022-12-19T14:07:39.880Z,0.32
2022-12-19T14:11:40.883Z,0.21
2022-12-19T14:13:55.706Z,0.21
2022-12-19T14:16:18.656Z,0.07
2022-12-19T14:18:50.606Z,-0.01
2022-12-19T14:22:05.735Z,-0.03
2022-12-19T14:24:21.293Z,-0.04
2022-12-19T14:28:21.797Z,-0.09
2022-12-19T14:30:32.105Z,-0.12
2022-12-19T14:33:39.458Z,-0.21
2022-12-19T14:36:09.920Z,-0.25
2022-12-19T14:39:25.135Z,-0.32
2022-12-19T14:42:01.458Z,-0.42
2022-12-19T14:52:34.657Z,-0.37
2022-12-19T14:53:08.626Z,-0.39
2022-12-19T14:54:21.602Z,-0.31
2022-12-19T14:54:26.180Z,-0.29
2022-12-19T14:56:50.550Z,-0.32
2022-12-19T14:59:42.212Z,-0.22
2022-12-19T15:02:10.260Z,-0.14
2022-12-19T15:04:47.706Z,-0.07
2022-12-19T15:07:29.802Z,-0.13
2022-12-19T15:11:03.944Z,-0.11
2022-12-19T15:14:52.226Z,-0.14
2022-12-19T15:16:25.188Z,-0.11
2022-12-19T15:19:01.049Z,-0.09
2022-12-19T15:21:32.240Z,-0.06
2022-12-19T15:23:59.999Z,0.00
2022-12-19T15:26:35.434Z,-0.02
2022-12-19T15:29:07.077Z,0.02
2022-12-19T15:31:40.255Z,-0.03
2022-12-19T15:34:48.397Z,0.03
2022-12-19T15:37:14.040Z,0.14
2022-12-19T15:39:43.064Z,0.23
2022-12-19T15:42:36.692Z,0.20
2022-12-19T15:45:05.293Z,0.18
2022-12-19T15:47:35.481Z,0.24
2022-12-19T15:50:14.265Z,0.30
2022-12-19T15:52:42.051Z,0.25
2022-12-19T15:55:16.850Z,0.19
2022-12-19T15:57:58.617Z,0.17
2022-12-19T16:00:29.806Z,0.26
2022-12-19T16:03:23.925Z,0.21
2022-12-19T16:05:46.024Z,0.13
2022-12-19T16:08:16.832Z,0.11
2022-12-19T16:10:48.057Z,0.00
2022-12-19T16:13:31.306Z,-0.01
2022-12-19T16:15:59.224Z,-0.02
2022-12-19T16:18:27.417Z,0.02
2022-12-19T16:20:54.969Z,0.04
2022-12-19T16:23:25.369Z,0.06
2022-12-19T16:25:53.493Z,0.08
2022-12-19T16:28:29.998Z,0.08
2022-12-19T16:30:59.229Z,0.75
2022-12-19T16:33:30.011Z,0.66
2022-12-19T16:36:07.023Z,0.53
2022-12-19T16:38:35.993Z,0.46
2022-12-19T16:41:03.934Z,0.33
2022-12-19T16:43:33.101Z,0.31
2022-12-19T16:46:01.969Z,0.19
2022-12-19T16:48:30.234Z,0.13
2022-12-19T16:50:59.048Z,0.16
2022-12-19T16:53:26.517Z,0.15
2022-12-19T16:55:56.662Z,0.15
2022-12-19T16:58:27.541Z,0.02
2022-12-19T17:00:55.877Z,-0.01
2022-12-19T17:03:26.150Z,0.02
2022-12-19T17:05:53.881Z,0.04
2022-12-19T17:08:21.717Z,0.06
2022-12-19T17:10:49.474Z,0.08
2022-12-19T17:13:21.203Z,0.08
2022-12-19T17:15:56.304Z,0.05
2022-12-19T17:18:29.356Z,0.10
2022-12-19T17:20:57.123Z,0.10
2022-12-19T17:23:26.166Z,0.15
2022-12-19T17:25:55.007Z,0.09
2022-12-19T17:28:23.032Z,0.14
2022-12-19T17:30:57.497Z,0.05
2022-12-19T17:33:33.367Z,0.05
2022-12-19T17:36:02.254Z,0.08
2022-12-19T17:38:30.030Z,0.12
2022-12-19T17:40:57.634Z,0.18
2022-12-19T17:43:25.341Z,0.17
2022-12-19T17:45:53.456Z,1.05
2022-12-19T17:48:31.378Z,0.52
2022-12-19T17:51:00.010Z,0.41
2022-12-19T17:53:27.665Z,0.45
2022-12-19T17:55:55.089Z,0.44
2022-12-19T17:58:22.880Z,0.39
2022-12-19T18:00:51.556Z,0.31
2022-12-19T18:03:24.988Z,0.30
2022-12-19T18:05:54.897Z,0.35
2022-12-19T18:08:27.400Z,0.40
2022-12-19T18:10:57.086Z,6.49
2022-12-19T18:13:26.285Z,8.40
2022-12-19T18:15:57.617Z,9.07
2022-12-19T18:18:34.468Z,5.81
2022-12-19T18:21:03.109Z,4.67
2022-12-19T18:23:31.353Z,3.87
2022-12-19T18:26:01.840Z,3.24
2022-12-19T18:28:30.537Z,2.68
2022-12-19T18:31:06.938Z,2.13
2022-12-19T18:33:39.777Z,1.82
2022-12-19T18:36:15.154Z,1.63
2022-12-19T18:38:42.610Z,1.40
2022-12-19T18:41:12.626Z,1.22
2022-12-19T18:43:40.068Z,1.08
2022-12-19T18:46:15.229Z,0.92
2022-12-19T18:48:45.178Z,0.92
2022-12-19T18:51:19.234Z,0.81
2022-12-19T18:53:48.176Z,0.64
2022-12-19T18:56:16.433Z,0.58
2022-12-19T18:58:43.903Z,4.58
2022-12-19T19:01:21.308Z,8.34
2022-12-19T19:03:57.094Z,9.30
2022-12-19T19:06:35.700Z,10.15
2022-12-19T19:09:19.984Z,7.89
2022-12-19T19:11:47.975Z,5.73
2022-12-19T19:14:15.561Z,4.26
2022-12-19T19:16:43.133Z,3.28
2022-12-19T19:19:14.521Z,2.53
2022-12-19T19:21:42.916Z,2.04
2022-12-19T19:24:17.460Z,1.67
2022-12-19T19:26:44.928Z,1.40
2022-12-19T19:29:15.784Z,1.06
2022-12-19T19:31:47.412Z,1.00
2022-12-19T19:34:29.792Z,0.78
2022-12-19T19:37:01.315Z,0.62
2022-12-19T19:39:33.312Z,0.48
2022-12-19T19:42:01.297Z,0.24
2022-12-19T19:44:29.969Z,0.34
2022-12-19T19:46:57.618Z,0.34
2022-12-19T19:49:25.618Z,0.11
2022-12-19T19:51:58.664Z,0.10
2022-12-19T19:54:30.198Z,0.04
2022-12-19T19:56:58.233Z,0.05
2022-12-19T19:59:25.709Z,0.12
2022-12-19T20:01:55.188Z,0.14
2022-12-19T20:04:25.931Z,0.18
2022-12-19T20:06:53.501Z,0.10
2022-12-19T20:09:21.041Z,0.11
2022-12-19T20:11:48.743Z,0.11
2022-12-19T20:14:16.289Z,-0.07
2022-12-19T20:16:43.934Z,-0.10
2022-12-19T20:19:11.831Z,-0.07
2022-12-19T20:21:39.267Z,-0.09
2022-12-19T20:24:06.897Z,-0.15
2022-12-19T20:26:35.238Z,-0.27
2022-12-19T20:29:03.240Z,-0.20
2022-12-19T20:31:31.381Z,-0.21
2022-12-19T20:33:59.237Z,-0.18
2022-12-19T20:36:26.755Z,-0.15
2022-12-19T20:38:54.677Z,-0.18
2022-12-19T20:41:22.445Z,-0.12
2022-12-19T20:43:50.034Z,-0.16
2022-12-19T20:46:19.674Z,-0.27
2022-12-19T20:48:48.644Z,-0.29
2022-12-19T20:51:17.943Z,-0.35
2022-12-19T20:53:45.961Z,-0.43
2022-12-19T20:56:18.852Z,-0.47
2022-12-19T20:58:46.920Z,-0.49
2022-12-19T21:01:23.789Z,-0.54
2022-12-19T21:03:52.536Z,-0.57
2022-12-19T21:06:21.555Z,-0.62
2022-12-19T21:08:49.179Z,-0.55
2022-12-19T21:11:16.687Z,-0.59
2022-12-19T21:13:44.901Z,-0.58
2022-12-19T21:16:18.048Z,-0.60
2022-12-19T21:18:47.393Z,-0.61
2022-12-19T21:21:22.170Z,-0.58
2022-12-19T21:23:51.117Z,-0.61
2022-12-19T21:26:21.694Z,-0.57
2022-12-19T21:28:49.287Z,-0.53
2022-12-19T21:31:21.251Z,-0.51
2022-12-19T21:33:49.190Z,-0.52
2022-12-19T21:36:21.853Z,-0.55
2022-12-19T21:38:51.942Z,-0.54
2022-12-19T21:41:20.603Z,-0.55
2022-12-19T21:43:52.366Z,-0.53
2022-12-19T21:46:22.981Z,-0.43
2022-12-19T21:48:52.863Z,-0.50
2022-12-19T21:51:25.372Z,-0.52
2022-12-19T21:53:57.376Z,-0.55
2022-12-19T21:56:26.404Z,-0.48
2022-12-19T21:58:56.301Z,-0.48
2022-12-19T22:01:24.619Z,-0.46
2022-12-19T22:03:52.648Z,-0.50
2022-12-19T22:06:27.901Z,-0.56
2022-12-19T22:08:56.685Z,-0.45
2022-12-19T22:11:25.118Z,-0.44
2022-12-19T22:13:53.203Z,-0.44
2022-12-19T22:16:21.048Z,-0.48
2022-12-19T22:18:50.034Z,-0.37
2022-12-19T22:21:17.588Z,-0.34
2022-12-19T22:23:45.786Z,-0.35
2022-12-19T22:26:22.214Z,-0.33
2022-12-19T22:28:52.193Z,-0.20
2022-12-19T22:31:21.224Z,-0.21
2022-12-19T22:33:50.260Z,-0.16
2022-12-19T22:36:25.721Z,-0.12
2022-12-19T22:38:56.366Z,-0.25
2022-12-19T22:41:24.323Z,-0.26
2022-12-19T22:43:52.728Z,-0.29
2022-12-19T22:46:23.437Z,-0.33
2022-12-19T22:48:51.199Z,-0.36
2022-12-19T22:51:19.844Z,-0.35
2022-12-19T22:53:48.271Z,-0.34
2022-12-19T22:56:21.573Z,-0.32
2022-12-19T22:58:51.272Z,-0.39
2022-12-19T23:01:22.278Z,-0.40
2022-12-19T23:03:51.960Z,-0.39
2022-12-19T23:06:20.836Z,-0.39
2022-12-19T23:08:48.369Z,-0.44
2022-12-19T23:11:19.025Z,-0.40
2022-12-19T23:13:48.024Z,-0.40
2022-12-19T23:16:16.490Z,-0.36
2022-12-19T23:18:43.962Z,-0.38
2022-12-19T23:21:18.182Z,-0.42
2022-12-19T23:23:47.482Z,-0.49
2022-12-19T23:26:21.771Z,-0.46
2022-12-19T23:28:57.109Z,-0.52
2022-12-19T23:31:25.718Z,-0.48
2022-12-19T23:33:53.751Z,-0.45
2022-12-19T23:36:44.967Z,-0.44
2022-12-19T23:39:11.246Z,-0.52
2022-12-19T23:41:39.159Z,-0.50
2022-12-19T23:44:07.907Z,-0.52
2022-12-19T23:46:35.900Z,-0.57
2022-12-19T23:49:03.764Z,-0.59
2022-12-19T23:51:31.579Z,-0.59
2022-12-19T23:53:59.456Z,-0.59
2022-12-19T23:56:31.936Z,-0.52
2022-12-19T23:58:59.945Z,-0.56
